Turner, Arkansas
Current Conditions -  °F | °C
As of 8:35 AM on Saturday 25 Oct 2014 (Local Time) from KCKM Reporting Station
Clear Clear  
Wind Chill: 59°   Ceiling: Unl
Heat Index: 59°   Visibility: 9mi
Dew Point: 57°   Wind: 3mph
Humidity: 94%   Direction: 240°WSW
Pressure: 30.14"   Gusts: NA
Location:  34.48°N, 91.01°W
Report Text: KCKM 251335Z AUTO 24003KT 9SM CLR 15/14 A3014 RMK AO1
Loading
Personal Weather Stations






























Interactive Weather Map
Tropical Storm Tracking
New forecast layout! Learn more

10-Day Weather Forecast

Advertisements
Track Severe Weather on mobile